Nearby METAR Reports

 

KIAD - Wash Dc/Dulles, Virginia, USA
Distance from station: ESE 7mi, 11km
Updated: Mon, 27-Jan-2020 5:52am EST
Mostly cloudy
Mostly cloudy
 Wind from S
Wind: S 7 mph , 11 km/h
Temperature: 32°F , 0°C
Wind Chill: 25°F , -4°C
Dew Point: 27°F , -3°C
Humidity: 80%
Barometer: 29.80 inHg , 1009.1 hPa
Clouds: Mostly cloudy
Visibility: 10 miles , 16 km
Cloud details: Partly cloudy 4000 ft
Partly cloudy 9000 ft
Mostly cloudy 24000 ft
2020/01/27 10:52 KIAD 271052Z 19006KT 10SM SCT040 SCT090 BKN240 00/M03 A2980 RMK AO2 SLP093 T00001033
KJYO - Leesburg/Godfrey, Virginia, USA
Distance from station: N 7mi, 12km
Updated: Mon, 27-Jan-2020 6:35am EST
Partly cloudy
Partly cloudy
 Wind from W
Wind: W 7 mph , 11 km/h
Temperature: 37°F , 3°C
Wind Chill: 32°F , 0°C
Dew Point: 32°F , 0°C
Humidity: 81%
Barometer: 29.81 inHg , 1009.5 hPa
Clouds: Partly cloudy
Visibility: 10 miles , 16 km
Cloud details: Partly cloudy 3900 ft
2020/01/27 11:35 KJYO 271135Z AUTO 28006KT 10SM SCT039 03/00 A2981 RMK AO2
 
KHEF - Manassas Muni, Virginia, USA
Distance from station: S 17mi, 28km
Updated: Mon, 27-Jan-2020 5:56am EST
Clear
Clear
 Wind from calm
Wind: Calm
Temperature: 27°F , -3°C
Dew Point: 25°F , -4°C
Humidity: 93%
Barometer: 29.82 inHg , 1009.8 hPa
Clouds: Clear
Visibility: 10 miles , 16 km
2020/01/27 10:56 KHEF 271056Z AUTO 00000KT 10SM CLR M03/M04 A2982 RMK AO2 SLP105 T10281039 FZRANO
KGAI - Gaithersburg, Maryland, USA
Distance from station: NE 26mi, 41km
Updated: Mon, 27-Jan-2020 5:56am EST
Mostly cloudy
Mostly cloudy
 Wind from SW
Wind: SW 5 mph , 7 km/h
Temperature: 36°F , 2°C
Wind Chill: 32°F , 0°C
Dew Point: 27°F , -3°C
Humidity: 70%
Barometer: 29.78 inHg , 1008.5 hPa
Clouds: Mostly cloudy
Visibility: 10 miles , 16 km
Cloud details: Mostly cloudy 3800 ft
2020/01/27 10:56 KGAI 271056Z AUTO 23004KT 10SM BKN038 02/M03 A2978 RMK AO2 SLP103 T00221028 FZRANO
 
KDAA - Fort Belvoir/Dav, Virginia, USA
Distance from station: SE 27mi, 44km
Updated: Mon, 27-Jan-2020 5:56am EST
Few Clouds
Few Clouds
 Wind from calm
Wind: Calm
Temperature: 28°F , -2°C
Dew Point: 27°F , -3°C
Humidity: 93%
Barometer: 29.81 inHg , 1009.5 hPa
Clouds: Few Clouds
Visibility: 10 miles , 16 km
Cloud details: Few Clouds 4400 ft
2020/01/27 10:56 KDAA 271056Z AUTO 00000KT 10SM FEW044 M02/M03 A2981 RMK AO2 SLP098 T10191035 $
KHWY - Warrenton, Virginia, USA
Distance from station: SSW 27mi, 44km
Updated: Mon, 27-Jan-2020 6:35am EST
Clear
Clear
 Wind from SW
Wind: SW 3 mph , 6 km/h
Temperature: 30°F , -1°C
Dew Point: 27°F , -3°C
Humidity: 86%
Barometer: 29.81 inHg , 1009.5 hPa
Clouds: Clear
Visibility: 10 miles , 16 km
2020/01/27 11:35 KHWY 271135Z AUTO 22003KT 10SM CLR M01/M03 A2981 RMK AO2 T10141034
 
KDCA - Washington/Natl, Washington D.c., USA
Distance from station: ESE 30mi, 48km
Updated: Mon, 27-Jan-2020 5:52am EST
Overcast
Overcast
 Wind from SSW
Wind: SSW 8 mph , 13 km/h
Temperature: 36°F , 2°C
Wind Chill: 30°F , -1°C
Dew Point: 28°F , -2°C
Humidity: 75%
Barometer: 29.81 inHg , 1009.5 hPa
Clouds: Overcast
Visibility: 10 miles , 16 km
Cloud details: Few Clouds 4300 ft
Partly cloudy 10000 ft
Overcast 20000 ft
2020/01/27 10:52 KDCA 271052Z 21007KT 10SM FEW043 SCT100 OVC200 02/M02 A2981 RMK AO2 SLP095 T00221017 $
KFDK - Frederick, Maryland, USA
Distance from station: NNE 33mi, 53km
Updated: Mon, 27-Jan-2020 6:50am EST
Partly cloudy
Partly cloudy
 Wind from W
Wind: W 8 mph , 13 km/h, Gust: 17 mph , 28 km/h
Temperature: 41°F , 5°C
Wind Chill: 36°F , 2°C
Dew Point: 32°F , 0°C
Humidity: 70%
Barometer: 29.78 inHg , 1008.5 hPa
Clouds: Partly cloudy
Visibility: 10 miles , 16 km
Cloud details: Partly cloudy 3200 ft
2020/01/27 11:50 KFDK 271150Z AUTO 27007G15KT 10SM SCT032 05/00 A2978 RMK AO2
 
KOKV - Winchester Rgnl, Virginia, USA
Distance from station: WNW 33mi, 54km
Updated: Mon, 27-Jan-2020 6:35am EST
Overcast
Overcast
 Wind from W
Wind: W 8 mph , 13 km/h
Temperature: 37°F , 3°C
Wind Chill: 31°F , -1°C
Dew Point: 28°F , -2°C
Humidity: 70%
Barometer: 29.78 inHg , 1008.5 hPa
Clouds: Overcast
Visibility: 10 miles , 16 km
Cloud details: Overcast 4100 ft
2020/01/27 11:35 KOKV 271135Z AUTO 28007KT 10SM OVC041 03/M02 A2978 RMK AO2
KCJR - Culpeper, Virginia, USA
Distance from station: SSW 34mi, 54km
Updated: Mon, 27-Jan-2020 6:35am EST
Clear
Clear
 Wind from calm
Wind: Calm
Temperature: 30°F , -1°C
Dew Point: 28°F , -2°C
Humidity: 93%
Barometer: 29.83 inHg , 1010.2 hPa
Clouds: Clear
Visibility: 10 miles , 16 km
2020/01/27 11:35 KCJR 271135Z AUTO 00000KT 10SM CLR M01/M02 A2983 RMK AO2 T10101021
 
KCGS - College Park, Maryland, USA
Distance from station: E 35mi, 56km
Updated: Mon, 27-Jan-2020 6:48am EST
Mostly cloudy
Mostly cloudy
 Wind from SSW
Wind: SSW 3 mph , 6 km/h
Temperature: 36°F , 2°C
Dew Point: 27°F , -3°C
Humidity: 70%
Barometer: 29.81 inHg , 1009.5 hPa
Clouds: Mostly cloudy
Visibility: 10 miles , 16 km
Cloud details: Mostly cloudy 4400 ft
2020/01/27 11:48 KCGS 271148Z AUTO 20003KT 10SM BKN044 02/M03 A2981 RMK AO1 T00231032
KNYG - Quantico Mcaf, Virginia, USA
Distance from station: SSE 35mi, 57km
Updated: Mon, 27-Jan-2020 5:56am EST
Clear
Clear
 Wind from WNW
Wind: WNW 6 mph , 9 km/h
Temperature: 34°F , 1°C
Wind Chill: 29°F , -2°C
Barometer: 29.83 inHg , 1010.2 hPa
Clouds: Clear
Visibility: 10 miles , 16 km
2020/01/27 10:56 KNYG 271056Z AUTO 30005KT 10SM CLR 01/ A2983 RMK AO2 SLP103 T0011 $
 
KFRR - Fort Royal, Virginia, USA
Distance from station: W 37mi, 59km
Updated: Mon, 27-Jan-2020 6:55am EST
Clear
Clear
 Wind from W
Wind: W 8 mph , 13 km/h
Temperature: 37°F , 3°C
Wind Chill: 31°F , -1°C
Dew Point: 28°F , -2°C
Humidity: 70%
Barometer: 29.79 inHg , 1008.8 hPa
Clouds: Clear
Visibility: 10 miles , 16 km
2020/01/27 11:55 KFRR 271155Z AUTO 26007KT 10SM CLR 03/M02 A2979 RMK AO1
KMRB - Martinsburg, West Virginia, USA
Distance from station: NW 38mi, 61km
Updated: Mon, 27-Jan-2020 5:53am EST
Overcast
Overcast
 Wind from W
Wind: W 14 mph , 22 km/h
Temperature: 39°F , 4°C
Wind Chill: 31°F , -1°C
Dew Point: 28°F , -2°C
Humidity: 65%
Barometer: 29.78 inHg , 1008.5 hPa
Clouds: Overcast
Visibility: 10 miles , 16 km
Cloud details: Overcast 3800 ft
2020/01/27 10:53 KMRB 271053Z AUTO 26012KT 10SM OVC038 04/M02 A2978 RMK AO2 SLP087 T00441017
 
KADW - Andrews Afb, Maryland, USA
Distance from station: ESE 39mi, 63km
Updated: Mon, 27-Jan-2020 5:56am EST
Clear
Clear
 Wind from calm
Wind: Calm
Temperature: 32°F , 0°C
Dew Point: 28°F , -2°C
Humidity: 87%
Barometer: 29.79 inHg , 1008.8 hPa
Clouds: Clear
Visibility: 10 miles , 16 km
2020/01/27 10:56 KADW 271056Z AUTO 00000KT 10SM CLR 00/M02 A2979 RMK AO2 SLP097 T00021025 $
KRMN - Stafford Regnl, Virginia, USA
Distance from station: S 39mi, 63km
Updated: Mon, 27-Jan-2020 6:35am EST
Partly cloudy
Partly cloudy
 Wind from calm
Wind: Calm
Temperature: 30°F , -1°C
Dew Point: 30°F , -1°C
Humidity: 100%
Barometer: 29.86 inHg , 1011.2 hPa
Clouds: Partly cloudy
Visibility: 10 miles , 16 km
Cloud details: Partly cloudy 10000 ft
2020/01/27 11:35 KRMN 271135Z AUTO 00000KT 10SM SCT100 M01/M01 A2986 RMK AO2 T10111011
 
KFME - Fort Meade, Maryland, USA
Distance from station: ENE 44mi, 70km
Updated: Mon, 27-Jan-2020 6:48am EST
Overcast
Overcast
 Wind from SW
Wind: SW 6 mph , 9 km/h
Temperature: 32°F , 0°C
Wind Chill: 26°F , -3°C
Dew Point: 30°F , -1°C
Humidity: 93%
Barometer: 29.82 inHg , 1009.8 hPa
Clouds: Overcast
Visibility: 10 miles , 16 km
Cloud details: Overcast 4200 ft
2020/01/27 11:48 KFME 271148Z AUTO 22005KT 10SM OVC042 00/M01 A2982 RMK AO1
KRSP - Nsf Thurmont, Maryland, USA
Distance from station: N 48mi, 77km
Updated: Sat, 18-May-2019 1:54pm EDT
NOT Current

 
2019/05/18 17:54 KRSP 181754Z AUTO VRB04KTLS21/16 A3004 RMK AO2 SLP168 T02110161 10228 20172 $
 
KEZF - Fredericksb/Shan, Virginia, USA
Distance from station: S 48mi, 78km
Updated: Mon, 27-Jan-2020 6:35am EST
Clear
Clear
 Wind from calm
Wind: Calm
Temperature: 32°F , 0°C
Dew Point: 32°F , 0°C
Humidity: 100%
Barometer: 29.83 inHg , 1010.2 hPa
Clouds: Clear
Visibility: 10 miles , 16 km
2020/01/27 11:35 KEZF 271135Z AUTO 00000KT 10SM CLR 00/00 A2983 RMK AO2 T00041005
KBWI - Balto/Wash Intl, Maryland, USA
Distance from station: ENE 49mi, 80km
Updated: Mon, 27-Jan-2020 5:54am EST
Mostly cloudy
Mostly cloudy
 Wind from WSW
Wind: WSW 9 mph , 15 km/h
Temperature: 39°F , 4°C
Wind Chill: 33°F , 1°C
Dew Point: 27°F , -3°C
Humidity: 61%
Barometer: 29.77 inHg , 1008.1 hPa
Clouds: Mostly cloudy
Visibility: 10 miles , 16 km
Cloud details: Few Clouds 10000 ft
Partly cloudy 21000 ft
Mostly cloudy 25000 ft
2020/01/27 10:54 KBWI 271054Z 24008KT 10SM FEW100 SCT210 BKN250 04/M03 A2977 RMK AO2 SLP082 T00391028